sensor_id;sensor_type;location;lat;lon;timestamp;temperature;humidity
13223;DHT22;6676;45.192;5.722;2023-02-15T00:01:14;6.00;99.90
13223;DHT22;6676;45.192;5.722;2023-02-15T00:04:16;6.00;99.90
13223;DHT22;6676;45.192;5.722;2023-02-15T00:07:09;6.00;99.90
13223;DHT22;6676;45.192;5.722;2023-02-15T00:10:05;5.90;99.90
13223;DHT22;6676;45.192;5.722;2023-02-15T00:13:02;5.90;99.90
13223;DHT22;6676;45.192;5.722;2023-02-15T00:16:05;5.90;99.90
13223;DHT22;6676;45.192;5.722;2023-02-15T00:21:45;5.90;99.90
13223;DHT22;6676;45.192;5.722;2023-02-15T00:27:15;5.80;99.90
13223;DHT22;6676;45.192;5.722;2023-02-15T00:30:09;5.80;99.90
13223;DHT22;6676;45.192;5.722;2023-02-15T00:33:01;5.80;99.90
13223;DHT22;6676;45.192;5.722;2023-02-15T00:35:58;5.70;99.90
13223;DHT22;6676;45.192;5.722;2023-02-15T00:38:50;5.70;99.90
13223;DHT22;6676;45.192;5.722;2023-02-15T00:41:41;5.70;99.90
13223;DHT22;6676;45.192;5.722;2023-02-15T00:44:33;5.60;99.90
13223;DHT22;6676;45.192;5.722;2023-02-15T00:47:25;5.60;99.90
13223;DHT22;6676;45.192;5.722;2023-02-15T00:50:17;5.60;99.90
13223;DHT22;6676;45.192;5.722;2023-02-15T00:55:53;5.50;99.90
13223;DHT22;6676;45.192;5.722;2023-02-15T01:01:32;5.50;99.90
13223;DHT22;6676;45.192;5.722;2023-02-15T01:07:06;5.50;99.90
13223;DHT22;6676;45.192;5.722;2023-02-15T01:10:00;5.40;99.90
13223;DHT22;6676;45.192;5.722;2023-02-15T01:12:53;5.40;99.90
13223;DHT22;6676;45.192;5.722;2023-02-15T01:15:45;5.40;99.90
13223;DHT22;6676;45.192;5.722;2023-02-15T01:21:25;5.30;99.90
13223;DHT22;6676;45.192;5.722;2023-02-15T01:24:16;5.30;99.90
13223;DHT22;6676;45.192;5.722;2023-02-15T01:27:10;5.30;99.90
13223;DHT22;6676;45.192;5.722;2023-02-15T01:30:12;5.30;99.90
13223;DHT22;6676;45.192;5.722;2023-02-15T01:33:07;5.20;99.90
13223;DHT22;6676;45.192;5.722;2023-02-15T01:36:00;5.10;99.90
13223;DHT22;6676;45.192;5.722;2023-02-15T01:38:54;5.10;99.90
13223;DHT22;6676;45.192;5.722;2023-02-15T01:44:49;5.10;99.90
13223;DHT22;6676;45.192;5.722;2023-02-15T01:47:43;5.10;99.90
13223;DHT22;6676;45.192;5.722;2023-02-15T01:53:21;4.80;99.90
13223;DHT22;6676;45.192;5.722;2023-02-15T01:56:16;4.70;99.90
13223;DHT22;6676;45.192;5.722;2023-02-15T02:02:45;4.70;99.90
13223;DHT22;6676;45.192;5.722;2023-02-15T02:08:30;4.70;99.90
13223;DHT22;6676;45.192;5.722;2023-02-15T02:11:23;4.70;99.90
13223;DHT22;6676;45.192;5.722;2023-02-15T02:14:16;4.70;99.90
13223;DHT22;6676;45.192;5.722;2023-02-15T02:17:11;4.60;99.90
13223;DHT22;6676;45.192;5.722;2023-02-15T02:23:32;4.60;99.90
13223;DHT22;6676;45.192;5.722;2023-02-15T02:27:05;4.40;99.90
13223;DHT22;6676;45.192;5.722;2023-02-15T02:36:24;4.30;99.90
13223;DHT22;6676;45.192;5.722;2023-02-15T02:42:00;4.60;99.90
13223;DHT22;6676;45.192;5.722;2023-02-15T03:01:47;4.50;99.90
13223;DHT22;6676;45.192;5.722;2023-02-15T03:04:42;4.50;99.90
13223;DHT22;6676;45.192;5.722;2023-02-15T03:07:35;4.50;99.90
13223;DHT22;6676;45.192;5.722;2023-02-15T03:10:28;4.50;99.90
13223;DHT22;6676;45.192;5.722;2023-02-15T03:13:20;4.40;99.90
13223;DHT22;6676;45.192;5.722;2023-02-15T03:16:13;4.40;99.90
13223;DHT22;6676;45.192;5.722;2023-02-15T03:22:07;4.30;99.90
13223;DHT22;6676;45.192;5.722;2023-02-15T03:25:06;4.30;99.90
13223;DHT22;6676;45.192;5.722;2023-02-15T03:28:00;4.20;99.90
13223;DHT22;6676;45.192;5.722;2023-02-15T03:30:55;4.20;99.90
13223;DHT22;6676;45.192;5.722;2023-02-15T03:36:36;4.20;99.90
13223;DHT22;6676;45.192;5.722;2023-02-15T03:42:19;4.20;99.90
13223;DHT22;6676;45.192;5.722;2023-02-15T03:47:55;4.20;99.90
13223;DHT22;6676;45.192;5.722;2023-02-15T03:50:49;4.20;99.90
13223;DHT22;6676;45.192;5.722;2023-02-15T03:54:00;4.20;99.90
13223;DHT22;6676;45.192;5.722;2023-02-15T03:56:55;4.10;99.90
13223;DHT22;6676;45.192;5.722;2023-02-15T04:00:11;4.20;99.90
13223;DHT22;6676;45.192;5.722;2023-02-15T04:03:26;4.20;99.90
13223;DHT22;6676;45.192;5.722;2023-02-15T04:06:17;4.10;99.90
13223;DHT22;6676;45.192;5.722;2023-02-15T04:09:08;4.10;99.90
13223;DHT22;6676;45.192;5.722;2023-02-15T04:25:48;4.20;99.90
13223;DHT22;6676;45.192;5.722;2023-02-15T04:31:32;4.00;99.90
13223;DHT22;6676;45.192;5.722;2023-02-15T04:37:08;4.00;99.90
13223;DHT22;6676;45.192;5.722;2023-02-15T04:40:01;4.20;99.90
13223;DHT22;6676;45.192;5.722;2023-02-15T04:42:54;4.20;99.90
13223;DHT22;6676;45.192;5.722;2023-02-15T04:45:49;4.10;99.90
13223;DHT22;6676;45.192;5.722;2023-02-15T04:48:40;4.00;99.90
13223;DHT22;6676;45.192;5.722;2023-02-15T05:05:15;3.90;99.90
13223;DHT22;6676;45.192;5.722;2023-02-15T05:10:49;3.90;99.90
13223;DHT22;6676;45.192;5.722;2023-02-15T05:16:19;3.80;99.90
13223;DHT22;6676;45.192;5.722;2023-02-15T05:19:11;3.80;99.90
13223;DHT22;6676;45.192;5.722;2023-02-15T05:22:03;3.80;99.90
13223;DHT22;6676;45.192;5.722;2023-02-15T05:24:54;3.80;99.90
13223;DHT22;6676;45.192;5.722;2023-02-15T05:28:03;3.80;99.90
13223;DHT22;6676;45.192;5.722;2023-02-15T05:31:12;3.70;99.90
13223;DHT22;6676;45.192;5.722;2023-02-15T05:34:06;3.70;99.90
13223;DHT22;6676;45.192;5.722;2023-02-15T05:36:58;3.70;99.90
13223;DHT22;6676;45.192;5.722;2023-02-15T05:39:49;3.70;99.90
13223;DHT22;6676;45.192;5.722;2023-02-15T05:42:40;3.70;99.90
13223;DHT22;6676;45.192;5.722;2023-02-15T05:45:32;3.70;99.90
13223;DHT22;6676;45.192;5.722;2023-02-15T05:48:37;3.70;99.90
13223;DHT22;6676;45.192;5.722;2023-02-15T05:51:29;3.70;99.90
13223;DHT22;6676;45.192;5.722;2023-02-15T05:57:04;3.60;99.90
13223;DHT22;6676;45.192;5.722;2023-02-15T06:02:38;3.50;99.90
13223;DHT22;6676;45.192;5.722;2023-02-15T06:05:30;3.50;99.90
13223;DHT22;6676;45.192;5.722;2023-02-15T06:11:05;3.40;99.90
13223;DHT22;6676;45.192;5.722;2023-02-15T06:17:05;3.30;99.90
13223;DHT22;6676;45.192;5.722;2023-02-15T06:22:37;3.30;99.90
13223;DHT22;6676;45.192;5.722;2023-02-15T06:29:11;3.30;99.90
13223;DHT22;6676;45.192;5.722;2023-02-15T06:32:03;3.30;99.90
13223;DHT22;6676;45.192;5.722;2023-02-15T06:34:55;3.30;99.90
13223;DHT22;6676;45.192;5.722;2023-02-15T06:37:50;3.30;99.90
13223;DHT22;6676;45.192;5.722;2023-02-15T06:40:42;3.30;99.90
13223;DHT22;6676;45.192;5.722;2023-02-15T06:43:33;3.30;99.90
13223;DHT22;6676;45.192;5.722;2023-02-15T06:46:29;3.30;99.90
13223;DHT22;6676;45.192;5.722;2023-02-15T06:49:21;3.30;99.90
13223;DHT22;6676;45.192;5.722;2023-02-15T06:52:12;3.40;99.90
13223;DHT22;6676;45.192;5.722;2023-02-15T06:55:05;3.40;99.90
13223;DHT22;6676;45.192;5.722;2023-02-15T07:00:43;3.40;99.90
13223;DHT22;6676;45.192;5.722;2023-02-15T07:03:38;3.40;99.90
13223;DHT22;6676;45.192;5.722;2023-02-15T07:06:33;3.40;99.90
13223;DHT22;6676;45.192;5.722;2023-02-15T07:09:25;3.30;99.90
13223;DHT22;6676;45.192;5.722;2023-02-15T07:12:17;3.40;99.90
13223;DHT22;6676;45.192;5.722;2023-02-15T07:31:19;3.40;99.90
13223;DHT22;6676;45.192;5.722;2023-02-15T07:34:13;3.40;99.90
13223;DHT22;6676;45.192;5.722;2023-02-15T07:37:06;3.40;99.90
13223;DHT22;6676;45.192;5.722;2023-02-15T07:39:58;3.50;99.90
13223;DHT22;6676;45.192;5.722;2023-02-15T07:54:41;3.60;99.90
13223;DHT22;6676;45.192;5.722;2023-02-15T08:00:20;3.70;99.90
13223;DHT22;6676;45.192;5.722;2023-02-15T08:06:06;3.80;99.90
13223;DHT22;6676;45.192;5.722;2023-02-15T08:11:53;3.90;99.90
13223;DHT22;6676;45.192;5.722;2023-02-15T08:14:50;3.90;99.90
13223;DHT22;6676;45.192;5.722;2023-02-15T08:17:45;3.90;99.90
13223;DHT22;6676;45.192;5.722;2023-02-15T08:20:37;3.80;99.90
13223;DHT22;6676;45.192;5.722;2023-02-15T08:26:49;4.10;99.90
13223;DHT22;6676;45.192;5.722;2023-02-15T08:33:03;4.20;99.90
13223;DHT22;6676;45.192;5.722;2023-02-15T08:35:58;4.20;99.90
13223;DHT22;6676;45.192;5.722;2023-02-15T08:38:51;4.30;99.90
13223;DHT22;6676;45.192;5.722;2023-02-15T08:41:44;4.40;99.90
13223;DHT22;6676;45.192;5.722;2023-02-15T08:47:29;4.50;99.90
13223;DHT22;6676;45.192;5.722;2023-02-15T08:50:22;4.60;99.90
13223;DHT22;6676;45.192;5.722;2023-02-15T08:53:15;4.70;99.90
13223;DHT22;6676;45.192;5.722;2023-02-15T08:56:09;4.70;99.90
13223;DHT22;6676;45.192;5.722;2023-02-15T08:59:05;4.90;99.90
13223;DHT22;6676;45.192;5.722;2023-02-15T09:02:02;5.00;99.90
13223;DHT22;6676;45.192;5.722;2023-02-15T09:04:58;5.10;99.90
13223;DHT22;6676;45.192;5.722;2023-02-15T09:07:49;5.20;99.90
13223;DHT22;6676;45.192;5.722;2023-02-15T09:13:33;5.30;99.90
13223;DHT22;6676;45.192;5.722;2023-02-15T09:16:29;5.60;99.90
13223;DHT22;6676;45.192;5.722;2023-02-15T09:19:23;5.80;99.90
13223;DHT22;6676;45.192;5.722;2023-02-15T09:22:17;5.80;99.90
13223;DHT22;6676;45.192;5.722;2023-02-15T09:25:12;5.90;99.90
13223;DHT22;6676;45.192;5.722;2023-02-15T09:28:04;6.00;99.90
13223;DHT22;6676;45.192;5.722;2023-02-15T09:31:09;6.10;99.90
13223;DHT22;6676;45.192;5.722;2023-02-15T09:34:13;6.20;99.90
13223;DHT22;6676;45.192;5.722;2023-02-15T09:37:07;6.20;99.90
13223;DHT22;6676;45.192;5.722;2023-02-15T09:40:00;6.30;99.90
13223;DHT22;6676;45.192;5.722;2023-02-15T09:46:19;6.50;99.90
13223;DHT22;6676;45.192;5.722;2023-02-15T09:52:34;6.70;99.90
13223;DHT22;6676;45.192;5.722;2023-02-15T10:12:22;7.10;99.90
13223;DHT22;6676;45.192;5.722;2023-02-15T10:19:03;7.60;99.90
13223;DHT22;6676;45.192;5.722;2023-02-15T10:22:02;7.70;99.90
13223;DHT22;6676;45.192;5.722;2023-02-15T10:25:17;7.80;99.90
13223;DHT22;6676;45.192;5.722;2023-02-15T10:28:20;7.90;99.90
13223;DHT22;6676;45.192;5.722;2023-02-15T10:31:23;8.00;99.90
13223;DHT22;6676;45.192;5.722;2023-02-15T10:34:24;8.10;99.90
13223;DHT22;6676;45.192;5.722;2023-02-15T10:40:23;8.20;99.90
13223;DHT22;6676;45.192;5.722;2023-02-15T10:46:34;8.30;99.90
13223;DHT22;6676;45.192;5.722;2023-02-15T10:52:25;8.60;99.90
13223;DHT22;6676;45.192;5.722;2023-02-15T10:55:23;8.70;99.90
13223;DHT22;6676;45.192;5.722;2023-02-15T10:58:28;8.90;99.90
13223;DHT22;6676;45.192;5.722;2023-02-15T11:04:28;9.20;99.90
13223;DHT22;6676;45.192;5.722;2023-02-15T11:07:20;9.20;99.90
13223;DHT22;6676;45.192;5.722;2023-02-15T11:26:15;9.50;99.90
13223;DHT22;6676;45.192;5.722;2023-02-15T11:29:12;9.60;99.90
13223;DHT22;6676;45.192;5.722;2023-02-15T11:35:40;9.60;99.90
13223;DHT22;6676;45.192;5.722;2023-02-15T11:53:32;9.50;99.90
13223;DHT22;6676;45.192;5.722;2023-02-15T12:02:31;9.90;99.90
13223;DHT22;6676;45.192;5.722;2023-02-15T12:05:28;10.10;99.90
13223;DHT22;6676;45.192;5.722;2023-02-15T12:08:22;10.10;99.90
13223;DHT22;6676;45.192;5.722;2023-02-15T12:11:18;10.10;99.90
13223;DHT22;6676;45.192;5.722;2023-02-15T12:14:12;10.10;99.90
13223;DHT22;6676;45.192;5.722;2023-02-15T12:20:03;10.30;99.90
13223;DHT22;6676;45.192;5.722;2023-02-15T12:23:00;10.40;99.90
13223;DHT22;6676;45.192;5.722;2023-02-15T12:25:56;10.50;99.90
13223;DHT22;6676;45.192;5.722;2023-02-15T12:28:51;10.70;99.90
13223;DHT22;6676;45.192;5.722;2023-02-15T12:31:47;10.80;99.90
13223;DHT22;6676;45.192;5.722;2023-02-15T12:37:34;10.90;99.90
13223;DHT22;6676;45.192;5.722;2023-02-15T12:46:21;11.10;99.90
13223;DHT22;6676;45.192;5.722;2023-02-15T12:52:22;11.30;99.90
13223;DHT22;6676;45.192;5.722;2023-02-15T12:55:24;11.40;99.90
13223;DHT22;6676;45.192;5.722;2023-02-15T13:27:35;12.80;99.90
13223;DHT22;6676;45.192;5.722;2023-02-15T13:30:36;12.90;99.90
13223;DHT22;6676;45.192;5.722;2023-02-15T13:33:33;12.90;99.90
13223;DHT22;6676;45.192;5.722;2023-02-15T13:36:30;13.10;99.90
13223;DHT22;6676;45.192;5.722;2023-02-15T13:39:30;13.20;99.90
13223;DHT22;6676;45.192;5.722;2023-02-15T13:42:30;13.30;99.90
13223;DHT22;6676;45.192;5.722;2023-02-15T13:45:41;13.40;99.90
13223;DHT22;6676;45.192;5.722;2023-02-15T13:48:46;13.50;99.90
13223;DHT22;6676;45.192;5.722;2023-02-15T13:54:57;13.60;99.90
13223;DHT22;6676;45.192;5.722;2023-02-15T13:58:08;13.70;99.90
13223;DHT22;6676;45.192;5.722;2023-02-15T14:01:08;13.70;99.90
13223;DHT22;6676;45.192;5.722;2023-02-15T14:04:35;13.80;99.90
13223;DHT22;6676;45.192;5.722;2023-02-15T14:07:55;13.80;99.90
13223;DHT22;6676;45.192;5.722;2023-02-15T14:10:57;13.70;99.90
13223;DHT22;6676;45.192;5.722;2023-02-15T14:14:14;13.80;99.90
13223;DHT22;6676;45.192;5.722;2023-02-15T14:17:10;13.80;99.90
13223;DHT22;6676;45.192;5.722;2023-02-15T14:20:07;13.90;99.90
13223;DHT22;6676;45.192;5.722;2023-02-15T14:23:03;14.00;99.90
13223;DHT22;6676;45.192;5.722;2023-02-15T14:25:58;14.00;99.90
13223;DHT22;6676;45.192;5.722;2023-02-15T14:31:37;14.00;99.90
13223;DHT22;6676;45.192;5.722;2023-02-15T14:34:34;14.00;99.90
13223;DHT22;6676;45.192;5.722;2023-02-15T14:37:29;14.10;99.90
13223;DHT22;6676;45.192;5.722;2023-02-15T14:40:30;14.10;99.90
13223;DHT22;6676;45.192;5.722;2023-02-15T14:43:43;14.10;99.90
13223;DHT22;6676;45.192;5.722;2023-02-15T14:46:37;14.00;99.90
13223;DHT22;6676;45.192;5.722;2023-02-15T14:49:31;13.90;99.90
13223;DHT22;6676;45.192;5.722;2023-02-15T14:52:23;14.00;99.90
13223;DHT22;6676;45.192;5.722;2023-02-15T14:58:00;14.30;99.90
13223;DHT22;6676;45.192;5.722;2023-02-15T15:00:51;14.30;99.90
13223;DHT22;6676;45.192;5.722;2023-02-15T15:03:48;14.30;99.90
13223;DHT22;6676;45.192;5.722;2023-02-15T15:06:42;14.40;99.90
13223;DHT22;6676;45.192;5.722;2023-02-15T15:09:37;14.40;99.90
13223;DHT22;6676;45.192;5.722;2023-02-15T15:12:40;14.50;99.90
13223;DHT22;6676;45.192;5.722;2023-02-15T15:15:47;14.50;99.90
13223;DHT22;6676;45.192;5.722;2023-02-15T15:51:09;14.70;99.90
13223;DHT22;6676;45.192;5.722;2023-02-15T15:54:01;14.60;99.90
13223;DHT22;6676;45.192;5.722;2023-02-15T15:56:56;14.60;99.90
13223;DHT22;6676;45.192;5.722;2023-02-15T15:59:50;14.60;99.90
13223;DHT22;6676;45.192;5.722;2023-02-15T16:02:51;14.50;99.90
13223;DHT22;6676;45.192;5.722;2023-02-15T16:05:44;14.30;99.90
13223;DHT22;6676;45.192;5.722;2023-02-15T16:08:38;14.00;99.90
13223;DHT22;6676;45.192;5.722;2023-02-15T16:11:31;14.00;99.90
13223;DHT22;6676;45.192;5.722;2023-02-15T16:14:26;13.90;99.90
13223;DHT22;6676;45.192;5.722;2023-02-15T16:17:21;13.80;99.90
13223;DHT22;6676;45.192;5.722;2023-02-15T16:20:19;13.80;99.90
13223;DHT22;6676;45.192;5.722;2023-02-15T16:23:24;13.70;99.90
13223;DHT22;6676;45.192;5.722;2023-02-15T16:26:13;13.60;99.90
13223;DHT22;6676;45.192;5.722;2023-02-15T16:29:15;13.50;99.90
13223;DHT22;6676;45.192;5.722;2023-02-15T16:32:16;13.50;99.90
13223;DHT22;6676;45.192;5.722;2023-02-15T16:35:16;13.40;99.90
13223;DHT22;6676;45.192;5.722;2023-02-15T16:38:10;13.40;99.90
13223;DHT22;6676;45.192;5.722;2023-02-15T16:41:02;13.30;99.90
13223;DHT22;6676;45.192;5.722;2023-02-15T16:43:56;13.20;99.90
13223;DHT22;6676;45.192;5.722;2023-02-15T16:46:52;13.10;99.90
13223;DHT22;6676;45.192;5.722;2023-02-15T16:49:47;13.00;99.90
13223;DHT22;6676;45.192;5.722;2023-02-15T16:52:42;12.90;99.90
13223;DHT22;6676;45.192;5.722;2023-02-15T16:55:38;12.80;99.90
13223;DHT22;6676;45.192;5.722;2023-02-15T16:58:36;12.80;99.90
13223;DHT22;6676;45.192;5.722;2023-02-15T17:01:31;12.70;99.90
13223;DHT22;6676;45.192;5.722;2023-02-15T17:04:33;12.50;99.90
13223;DHT22;6676;45.192;5.722;2023-02-15T17:07:27;12.50;99.90
13223;DHT22;6676;45.192;5.722;2023-02-15T17:10:30;12.60;99.90
13223;DHT22;6676;45.192;5.722;2023-02-15T17:13:23;12.50;99.90
13223;DHT22;6676;45.192;5.722;2023-02-15T17:16:31;12.40;99.90
13223;DHT22;6676;45.192;5.722;2023-02-15T17:19:25;12.30;99.90
13223;DHT22;6676;45.192;5.722;2023-02-15T17:22:23;12.40;99.90
13223;DHT22;6676;45.192;5.722;2023-02-15T17:25:23;12.30;99.90
13223;DHT22;6676;45.192;5.722;2023-02-15T17:28:19;12.30;99.90
13223;DHT22;6676;45.192;5.722;2023-02-15T17:31:15;12.30;99.90
13223;DHT22;6676;45.192;5.722;2023-02-15T17:34:13;12.20;99.90
13223;DHT22;6676;45.192;5.722;2023-02-15T17:37:09;12.40;99.90
13223;DHT22;6676;45.192;5.722;2023-02-15T17:40:10;12.30;99.90
13223;DHT22;6676;45.192;5.722;2023-02-15T17:43:00;12.10;99.90
13223;DHT22;6676;45.192;5.722;2023-02-15T17:45:56;12.10;99.90
13223;DHT22;6676;45.192;5.722;2023-02-15T17:48:50;12.00;99.90
13223;DHT22;6676;45.192;5.722;2023-02-15T17:51:42;11.80;99.90
13223;DHT22;6676;45.192;5.722;2023-02-15T17:54:34;11.60;99.90
13223;DHT22;6676;45.192;5.722;2023-02-15T17:57:43;11.40;99.90
13223;DHT22;6676;45.192;5.722;2023-02-15T18:00:39;11.30;99.90
13223;DHT22;6676;45.192;5.722;2023-02-15T18:03:51;11.20;99.90
13223;DHT22;6676;45.192;5.722;2023-02-15T18:07:02;11.00;99.90
13223;DHT22;6676;45.192;5.722;2023-02-15T18:10:17;10.90;99.90
13223;DHT22;6676;45.192;5.722;2023-02-15T18:13:27;10.80;99.90
13223;DHT22;6676;45.192;5.722;2023-02-15T18:16:20;10.70;99.90
13223;DHT22;6676;45.192;5.722;2023-02-15T18:19:17;10.60;99.90
13223;DHT22;6676;45.192;5.722;2023-02-15T18:22:11;10.70;99.90
13223;DHT22;6676;45.192;5.722;2023-02-15T18:25:04;10.70;99.90
13223;DHT22;6676;45.192;5.722;2023-02-15T18:27:59;10.70;99.90
13223;DHT22;6676;45.192;5.722;2023-02-15T18:30:58;10.50;99.90
13223;DHT22;6676;45.192;5.722;2023-02-15T18:33:53;10.40;99.90
13223;DHT22;6676;45.192;5.722;2023-02-15T18:36:46;10.30;99.90
13223;DHT22;6676;45.192;5.722;2023-02-15T18:43:18;10.20;99.90
13223;DHT22;6676;45.192;5.722;2023-02-15T18:46:10;10.20;99.90
13223;DHT22;6676;45.192;5.722;2023-02-15T18:49:03;10.10;99.90
13223;DHT22;6676;45.192;5.722;2023-02-15T18:51:56;10.10;99.90
13223;DHT22;6676;45.192;5.722;2023-02-15T18:54:52;10.10;99.90
13223;DHT22;6676;45.192;5.722;2023-02-15T19:00:30;10.10;99.90
13223;DHT22;6676;45.192;5.722;2023-02-15T19:03:24;10.00;99.90
13223;DHT22;6676;45.192;5.722;2023-02-15T19:06:18;10.00;99.90
13223;DHT22;6676;45.192;5.722;2023-02-15T19:09:13;10.00;99.90
13223;DHT22;6676;45.192;5.722;2023-02-15T19:12:10;9.90;99.90
13223;DHT22;6676;45.192;5.722;2023-02-15T19:17:46;9.90;99.90
13223;DHT22;6676;45.192;5.722;2023-02-15T19:20:39;9.90;99.90
13223;DHT22;6676;45.192;5.722;2023-02-15T19:23:34;9.90;99.90
13223;DHT22;6676;45.192;5.722;2023-02-15T19:26:27;9.80;99.90
13223;DHT22;6676;45.192;5.722;2023-02-15T19:29:26;9.80;99.90
13223;DHT22;6676;45.192;5.722;2023-02-15T19:39:39;9.70;99.90
13223;DHT22;6676;45.192;5.722;2023-02-15T19:42:32;9.70;99.90
13223;DHT22;6676;45.192;5.722;2023-02-15T19:45:24;9.70;99.90
13223;DHT22;6676;45.192;5.722;2023-02-15T19:48:16;9.60;99.90
13223;DHT22;6676;45.192;5.722;2023-02-15T19:51:09;9.60;99.90
13223;DHT22;6676;45.192;5.722;2023-02-15T19:54:01;9.60;99.90
13223;DHT22;6676;45.192;5.722;2023-02-15T19:56:53;9.50;99.90
13223;DHT22;6676;45.192;5.722;2023-02-15T19:59:45;9.40;99.90
13223;DHT22;6676;45.192;5.722;2023-02-15T20:02:36;9.40;99.90
13223;DHT22;6676;45.192;5.722;2023-02-15T20:05:29;9.40;99.90
13223;DHT22;6676;45.192;5.722;2023-02-15T20:08:23;9.30;99.90
13223;DHT22;6676;45.192;5.722;2023-02-15T20:11:15;9.30;99.90
13223;DHT22;6676;45.192;5.722;2023-02-15T20:14:10;9.30;99.90
13223;DHT22;6676;45.192;5.722;2023-02-15T20:17:03;9.20;99.90
13223;DHT22;6676;45.192;5.722;2023-02-15T20:19:54;9.20;99.90
13223;DHT22;6676;45.192;5.722;2023-02-15T20:22:48;9.20;99.90
13223;DHT22;6676;45.192;5.722;2023-02-15T20:25:40;9.20;99.90
13223;DHT22;6676;45.192;5.722;2023-02-15T20:28:32;9.20;99.90
13223;DHT22;6676;45.192;5.722;2023-02-15T20:31:23;9.10;99.90
13223;DHT22;6676;45.192;5.722;2023-02-15T20:34:15;9.10;99.90
13223;DHT22;6676;45.192;5.722;2023-02-15T20:37:08;9.10;99.90
13223;DHT22;6676;45.192;5.722;2023-02-15T20:40:01;9.10;99.90
13223;DHT22;6676;45.192;5.722;2023-02-15T20:42:53;9.10;99.90
13223;DHT22;6676;45.192;5.722;2023-02-15T20:45:45;9.00;99.90
13223;DHT22;6676;45.192;5.722;2023-02-15T20:48:37;9.00;99.90
13223;DHT22;6676;45.192;5.722;2023-02-15T20:54:34;9.00;99.90
13223;DHT22;6676;45.192;5.722;2023-02-15T20:57:26;9.10;99.90
13223;DHT22;6676;45.192;5.722;2023-02-15T21:00:20;9.10;99.90
13223;DHT22;6676;45.192;5.722;2023-02-15T21:03:13;9.00;99.90
13223;DHT22;6676;45.192;5.722;2023-02-15T21:06:05;9.00;99.90
13223;DHT22;6676;45.192;5.722;2023-02-15T21:08:58;8.90;99.90
13223;DHT22;6676;45.192;5.722;2023-02-15T21:11:52;8.80;99.90
13223;DHT22;6676;45.192;5.722;2023-02-15T21:14:44;8.80;99.90
13223;DHT22;6676;45.192;5.722;2023-02-15T21:17:36;8.70;99.90
13223;DHT22;6676;45.192;5.722;2023-02-15T21:23:16;8.80;99.90
13223;DHT22;6676;45.192;5.722;2023-02-15T21:29:29;8.60;99.90
13223;DHT22;6676;45.192;5.722;2023-02-15T21:32:29;8.60;99.90
13223;DHT22;6676;45.192;5.722;2023-02-15T21:35:24;8.50;99.90
13223;DHT22;6676;45.192;5.722;2023-02-15T21:40:55;8.50;99.90
13223;DHT22;6676;45.192;5.722;2023-02-15T21:43:50;8.60;99.90
13223;DHT22;6676;45.192;5.722;2023-02-15T21:49:51;8.50;99.90
13223;DHT22;6676;45.192;5.722;2023-02-15T21:52:43;8.50;99.90
13223;DHT22;6676;45.192;5.722;2023-02-15T21:58:22;8.50;99.90
13223;DHT22;6676;45.192;5.722;2023-02-15T22:04:03;8.40;99.90
13223;DHT22;6676;45.192;5.722;2023-02-15T22:09:37;8.40;99.90
13223;DHT22;6676;45.192;5.722;2023-02-15T22:15:19;8.40;99.90
13223;DHT22;6676;45.192;5.722;2023-02-15T22:18:18;8.40;99.90
13223;DHT22;6676;45.192;5.722;2023-02-15T22:21:11;8.40;99.90
13223;DHT22;6676;45.192;5.722;2023-02-15T22:24:10;8.30;99.90
13223;DHT22;6676;45.192;5.722;2023-02-15T22:29:41;8.30;99.90
13223;DHT22;6676;45.192;5.722;2023-02-15T22:32:33;8.20;99.90
13223;DHT22;6676;45.192;5.722;2023-02-15T22:35:29;8.20;99.90
13223;DHT22;6676;45.192;5.722;2023-02-15T22:38:21;8.20;99.90
13223;DHT22;6676;45.192;5.722;2023-02-15T22:41:13;8.10;99.90
13223;DHT22;6676;45.192;5.722;2023-02-15T22:46:45;8.00;99.90
13223;DHT22;6676;45.192;5.722;2023-02-15T22:49:37;7.90;99.90
13223;DHT22;6676;45.192;5.722;2023-02-15T22:57:53;7.90;99.90
13223;DHT22;6676;45.192;5.722;2023-02-15T23:00:45;7.90;99.90
13223;DHT22;6676;45.192;5.722;2023-02-15T23:03:37;7.90;99.90
13223;DHT22;6676;45.192;5.722;2023-02-15T23:09:10;7.90;99.90
13223;DHT22;6676;45.192;5.722;2023-02-15T23:12:05;7.90;99.90
13223;DHT22;6676;45.192;5.722;2023-02-15T23:14:57;7.90;99.90
13223;DHT22;6676;45.192;5.722;2023-02-15T23:20:29;7.80;99.90
13223;DHT22;6676;45.192;5.722;2023-02-15T23:26:44;7.80;99.90
13223;DHT22;6676;45.192;5.722;2023-02-15T23:29:36;7.70;99.90
13223;DHT22;6676;45.192;5.722;2023-02-15T23:32:27;7.70;99.90
13223;DHT22;6676;45.192;5.722;2023-02-15T23:35:20;7.60;99.90
13223;DHT22;6676;45.192;5.722;2023-02-15T23:38:18;7.50;99.90
13223;DHT22;6676;45.192;5.722;2023-02-15T23:41:11;7.50;99.90
13223;DHT22;6676;45.192;5.722;2023-02-15T23:44:09;7.60;99.90
13223;DHT22;6676;45.192;5.722;2023-02-15T23:47:02;7.60;99.90
13223;DHT22;6676;45.192;5.722;2023-02-15T23:52:34;7.30;99.90
13223;DHT22;6676;45.192;5.722;2023-02-15T23:58:13;7.20;99.90
